sensor_id;sensor_type;location;lat;lon;timestamp;pressure;altitude;pressure_sealevel;temperature;humidity
79453;BME280;68899;52.116;5.404;2024-01-25T00:00:09;102799.81;;;7.72;76.83
79453;BME280;68899;52.116;5.404;2024-01-25T00:02:35;102801.56;;;7.71;77.07
79453;BME280;68899;52.116;5.404;2024-01-25T00:05:02;102805.97;;;7.69;77.38
79453;BME280;68899;52.116;5.404;2024-01-25T00:07:29;102806.06;;;7.66;77.01
79453;BME280;68899;52.116;5.404;2024-01-25T00:09:56;102813.03;;;7.64;76.91
79453;BME280;68899;52.116;5.404;2024-01-25T00:12:24;102804.34;;;7.62;77.65
79453;BME280;68899;52.116;5.404;2024-01-25T00:14:50;102812.28;;;7.59;77.52
79453;BME280;68899;52.116;5.404;2024-01-25T00:17:18;102802.72;;;7.56;77.87
79453;BME280;68899;52.116;5.404;2024-01-25T00:19:45;102806.22;;;7.55;77.52
79453;BME280;68899;52.116;5.404;2024-01-25T00:22:12;102808.88;;;7.54;77.37
79453;BME280;68899;52.116;5.404;2024-01-25T00:24:38;102806.31;;;7.51;77.76
79453;BME280;68899;52.116;5.404;2024-01-25T00:27:05;102808.94;;;7.51;77.58
79453;BME280;68899;52.116;5.404;2024-01-25T00:29:34;102806.38;;;7.46;77.82
79453;BME280;68899;52.116;5.404;2024-01-25T00:32:00;102805.56;;;7.43;77.72
79453;BME280;68899;52.116;5.404;2024-01-25T00:34:27;102805.63;;;7.40;78.24
79453;BME280;68899;52.116;5.404;2024-01-25T00:36:54;102808.25;;;7.38;78.13
79453;BME280;68899;52.116;5.404;2024-01-25T00:39:21;102810.00;;;7.37;78.16
79453;BME280;68899;52.116;5.404;2024-01-25T00:41:50;102810.88;;;7.38;78.33
79453;BME280;68899;52.116;5.404;2024-01-25T00:44:17;102817.06;;;7.34;77.99
79453;BME280;68899;52.116;5.404;2024-01-25T00:46:44;102812.78;;;7.30;78.05
79453;BME280;68899;52.116;5.404;2024-01-25T00:49:14;102808.41;;;7.29;78.59
79453;BME280;68899;52.116;5.404;2024-01-25T00:51:46;102819.78;;;7.28;78.32
79453;BME280;68899;52.116;5.404;2024-01-25T00:54:14;102830.31;;;7.25;78.57
79453;BME280;68899;52.116;5.404;2024-01-25T00:56:41;102821.63;;;7.23;78.81
79453;BME280;68899;52.116;5.404;2024-01-25T00:59:08;102827.72;;;7.23;78.74
79453;BME280;68899;52.116;5.404;2024-01-25T01:01:34;102828.63;;;7.22;78.48
79453;BME280;68899;52.116;5.404;2024-01-25T01:04:01;102833.00;;;7.19;78.60
79453;BME280;68899;52.116;5.404;2024-01-25T01:06:29;102840.88;;;7.19;78.57
79453;BME280;68899;52.116;5.404;2024-01-25T01:08:55;102848.78;;;7.16;78.68
79453;BME280;68899;52.116;5.404;2024-01-25T01:11:22;102840.94;;;7.14;78.36
79453;BME280;68899;52.116;5.404;2024-01-25T01:13:49;102834.88;;;7.11;78.69
79453;BME280;68899;52.116;5.404;2024-01-25T01:16:15;102841.06;;;7.06;78.58
79453;BME280;68899;52.116;5.404;2024-01-25T01:18:42;102844.59;;;7.02;78.58
79453;BME280;68899;52.116;5.404;2024-01-25T01:21:09;102858.53;;;7.03;78.33
79453;BME280;68899;52.116;5.404;2024-01-25T01:23:35;102854.19;;;7.02;78.55
79453;BME280;68899;52.116;5.404;2024-01-25T01:26:04;102859.50;;;6.99;78.48
79453;BME280;68899;52.116;5.404;2024-01-25T01:28:31;102865.63;;;6.98;78.55
79453;BME280;68899;52.116;5.404;2024-01-25T01:30:58;102858.69;;;6.94;78.77
79453;BME280;68899;52.116;5.404;2024-01-25T01:33:24;102858.72;;;6.91;78.77
79453;BME280;68899;52.116;5.404;2024-01-25T01:35:51;102852.66;;;6.89;78.59
79453;BME280;68899;52.116;5.404;2024-01-25T01:38:17;102871.03;;;6.84;78.92
79453;BME280;68899;52.116;5.404;2024-01-25T01:40:44;102868.44;;;6.83;78.69
79453;BME280;68899;52.116;5.404;2024-01-25T01:43:21;102865.00;;;6.79;78.96
79453;BME280;68899;52.116;5.404;2024-01-25T01:45:50;102863.31;;;6.73;78.93
79453;BME280;68899;52.116;5.404;2024-01-25T01:48:17;102865.13;;;6.70;79.45
79453;BME280;68899;52.116;5.404;2024-01-25T01:50:44;102870.38;;;6.67;78.81
79453;BME280;68899;52.116;5.404;2024-01-25T01:53:11;102871.28;;;6.64;79.17
79453;BME280;68899;52.116;5.404;2024-01-25T01:55:39;102871.38;;;6.58;79.25
79453;BME280;68899;52.116;5.404;2024-01-25T01:58:07;102873.13;;;6.56;79.77
79453;BME280;68899;52.116;5.404;2024-01-25T02:00:34;102867.03;;;6.56;79.60
79453;BME280;68899;52.116;5.404;2024-01-25T02:03:00;102872.31;;;6.54;79.39
79453;BME280;68899;52.116;5.404;2024-01-25T02:05:28;102878.44;;;6.51;79.49
79453;BME280;68899;52.116;5.404;2024-01-25T02:07:54;102880.16;;;6.53;79.37
79453;BME280;68899;52.116;5.404;2024-01-25T02:10:21;102885.41;;;6.51;79.64
79453;BME280;68899;52.116;5.404;2024-01-25T02:12:48;102875.88;;;6.47;79.65
79453;BME280;68899;52.116;5.404;2024-01-25T02:15:14;102884.66;;;6.43;79.33
79453;BME280;68899;52.116;5.404;2024-01-25T02:17:41;102883.78;;;6.41;79.31
79453;BME280;68899;52.116;5.404;2024-01-25T02:20:08;102902.06;;;6.41;79.59
79453;BME280;68899;52.116;5.404;2024-01-25T02:22:35;102912.53;;;6.41;79.39
79453;BME280;68899;52.116;5.404;2024-01-25T02:25:01;102909.06;;;6.40;79.18
79453;BME280;68899;52.116;5.404;2024-01-25T02:27:28;102909.09;;;6.37;79.01
79453;BME280;68899;52.116;5.404;2024-01-25T02:29:54;102916.13;;;6.32;78.68
79453;BME280;68899;52.116;5.404;2024-01-25T02:32:21;102917.03;;;6.30;79.41
79453;BME280;68899;52.116;5.404;2024-01-25T02:34:48;102909.22;;;6.27;78.99
79453;BME280;68899;52.116;5.404;2024-01-25T02:37:15;102909.25;;;6.22;79.24
79453;BME280;68899;52.116;5.404;2024-01-25T02:39:41;102915.41;;;6.18;79.53
79453;BME280;68899;52.116;5.404;2024-01-25T02:42:08;102917.16;;;6.16;79.40
79453;BME280;68899;52.116;5.404;2024-01-25T02:44:34;102916.34;;;6.11;79.28
79453;BME280;68899;52.116;5.404;2024-01-25T02:47:01;102917.25;;;6.08;79.41
79453;BME280;68899;52.116;5.404;2024-01-25T02:49:27;102920.72;;;6.09;79.27
79453;BME280;68899;52.116;5.404;2024-01-25T02:51:54;102916.38;;;6.06;79.09
79453;BME280;68899;52.116;5.404;2024-01-25T02:54:21;102921.66;;;6.02;79.19
79453;BME280;68899;52.116;5.404;2024-01-25T02:56:47;102928.66;;;6.00;78.95
79453;BME280;68899;52.116;5.404;2024-01-25T02:59:14;102927.84;;;5.91;79.19
79453;BME280;68899;52.116;5.404;2024-01-25T03:01:41;102916.50;;;5.88;79.25
79453;BME280;68899;52.116;5.404;2024-01-25T03:04:08;102929.59;;;5.86;79.82
79453;BME280;68899;52.116;5.404;2024-01-25T03:06:35;102927.03;;;5.83;79.15
79453;BME280;68899;52.116;5.404;2024-01-25T03:09:02;102927.03;;;5.80;79.04
79453;BME280;68899;52.116;5.404;2024-01-25T03:11:30;102915.72;;;5.78;79.25
79453;BME280;68899;52.116;5.404;2024-01-25T03:13:57;102908.78;;;5.77;78.94
79453;BME280;68899;52.116;5.404;2024-01-25T03:16:23;102911.44;;;5.71;78.51
79453;BME280;68899;52.116;5.404;2024-01-25T03:18:50;102916.72;;;5.62;78.69
79453;BME280;68899;52.116;5.404;2024-01-25T03:21:17;102921.13;;;5.57;78.69
79453;BME280;68899;52.116;5.404;2024-01-25T03:23:43;102925.50;;;5.56;78.67
79453;BME280;68899;52.116;5.404;2024-01-25T03:26:10;102923.72;;;5.58;78.85
79453;BME280;68899;52.116;5.404;2024-01-25T03:28:36;102926.31;;;5.60;78.46
79453;BME280;68899;52.116;5.404;2024-01-25T03:31:04;102926.34;;;5.58;78.48
79453;BME280;68899;52.116;5.404;2024-01-25T03:33:31;102926.31;;;5.60;78.71
79453;BME280;68899;52.116;5.404;2024-01-25T03:36:05;102931.59;;;5.57;78.39
79453;BME280;68899;52.116;5.404;2024-01-25T03:38:32;102930.75;;;5.50;78.46
79453;BME280;68899;52.116;5.404;2024-01-25T03:40:59;102926.44;;;5.43;78.18
79453;BME280;68899;52.116;5.404;2024-01-25T03:43:26;102925.66;;;5.33;77.66
79453;BME280;68899;52.116;5.404;2024-01-25T03:45:58;102920.50;;;5.18;77.91
79453;BME280;68899;52.116;5.404;2024-01-25T03:48:25;102915.34;;;5.07;77.88
79453;BME280;68899;52.116;5.404;2024-01-25T03:50:52;102911.03;;;5.00;78.06
79453;BME280;68899;52.116;5.404;2024-01-25T03:53:22;102912.81;;;4.95;77.87
79453;BME280;68899;52.116;5.404;2024-01-25T03:55:49;102906.75;;;4.92;77.46
79453;BME280;68899;52.116;5.404;2024-01-25T03:58:19;102914.59;;;4.89;77.87
79453;BME280;68899;52.116;5.404;2024-01-25T04:00:46;102923.28;;;4.88;78.02
79453;BME280;68899;52.116;5.404;2024-01-25T04:03:13;102919.78;;;4.90;77.89
79453;BME280;68899;52.116;5.404;2024-01-25T04:05:40;102927.59;;;4.92;77.72
79453;BME280;68899;52.116;5.404;2024-01-25T04:08:07;102924.13;;;4.93;78.36
79453;BME280;68899;52.116;5.404;2024-01-25T04:10:34;102927.59;;;4.95;78.60
79453;BME280;68899;52.116;5.404;2024-01-25T04:13:00;102920.66;;;4.95;78.48
79453;BME280;68899;52.116;5.404;2024-01-25T04:15:28;102910.22;;;4.91;78.46
79453;BME280;68899;52.116;5.404;2024-01-25T04:17:55;102916.31;;;4.85;78.66
79453;BME280;68899;52.116;5.404;2024-01-25T04:20:22;102906.78;;;4.82;78.50
79453;BME280;68899;52.116;5.404;2024-01-25T04:22:49;102908.56;;;4.79;78.72
79453;BME280;68899;52.116;5.404;2024-01-25T04:25:16;102915.50;;;4.77;78.63
79453;BME280;68899;52.116;5.404;2024-01-25T04:27:42;102917.25;;;4.73;78.54
79453;BME280;68899;52.116;5.404;2024-01-25T04:30:09;102924.22;;;4.71;78.49
79453;BME280;68899;52.116;5.404;2024-01-25T04:32:36;102916.41;;;4.67;78.57
79453;BME280;68899;52.116;5.404;2024-01-25T04:35:03;102921.66;;;4.64;78.46
79453;BME280;68899;52.116;5.404;2024-01-25T04:37:30;102925.13;;;4.61;78.57
79453;BME280;68899;52.116;5.404;2024-01-25T04:39:57;102925.13;;;4.58;78.66
79453;BME280;68899;52.116;5.404;2024-01-25T04:42:24;102921.66;;;4.58;78.42
79453;BME280;68899;52.116;5.404;2024-01-25T04:44:50;102923.41;;;4.57;78.78
79453;BME280;68899;52.116;5.404;2024-01-25T04:47:17;102926.00;;;4.57;78.79
79453;BME280;68899;52.116;5.404;2024-01-25T04:49:43;102932.97;;;4.57;78.43
79453;BME280;68899;52.116;5.404;2024-01-25T04:52:10;102919.94;;;4.53;78.68
79453;BME280;68899;52.116;5.404;2024-01-25T04:54:36;102925.16;;;4.47;78.81
79453;BME280;68899;52.116;5.404;2024-01-25T04:57:03;102931.28;;;4.43;79.03
79453;BME280;68899;52.116;5.404;2024-01-25T04:59:33;102932.13;;;4.44;78.91
79453;BME280;68899;52.116;5.404;2024-01-25T05:02:00;102929.53;;;4.39;79.12
79453;BME280;68899;52.116;5.404;2024-01-25T05:04:28;102928.66;;;4.39;79.02
79453;BME280;68899;52.116;5.404;2024-01-25T05:06:55;102923.47;;;4.37;78.85
79453;BME280;68899;52.116;5.404;2024-01-25T05:09:22;102929.53;;;4.39;78.99
79453;BME280;68899;52.116;5.404;2024-01-25T05:11:49;102936.47;;;4.39;78.99
79453;BME280;68899;52.116;5.404;2024-01-25T05:14:17;102938.25;;;4.35;78.96
79453;BME280;68899;52.116;5.404;2024-01-25T05:16:43;102939.09;;;4.31;79.37
79453;BME280;68899;52.116;5.404;2024-01-25T05:19:10;102933.03;;;4.35;79.55
79453;BME280;68899;52.116;5.404;2024-01-25T05:21:37;102933.03;;;4.37;79.51
79453;BME280;68899;52.116;5.404;2024-01-25T05:24:04;102938.25;;;4.35;79.78
79453;BME280;68899;52.116;5.404;2024-01-25T05:26:31;102945.19;;;4.36;79.99
79453;BME280;68899;52.116;5.404;2024-01-25T05:28:57;102952.13;;;4.37;80.05
79453;BME280;68899;52.116;5.404;2024-01-25T05:31:24;102941.72;;;4.36;80.18
79453;BME280;68899;52.116;5.404;2024-01-25T05:33:50;102942.59;;;4.35;80.83
79453;BME280;68899;52.116;5.404;2024-01-25T05:36:17;102940.84;;;4.37;80.65
79453;BME280;68899;52.116;5.404;2024-01-25T05:38:44;102946.03;;;4.40;80.94
79453;BME280;68899;52.116;5.404;2024-01-25T05:41:10;102961.66;;;4.43;81.68
79453;BME280;68899;52.116;5.404;2024-01-25T05:43:37;102953.84;;;4.46;81.61
79453;BME280;68899;52.116;5.404;2024-01-25T05:46:03;102952.09;;;4.46;81.50
79453;BME280;68899;52.116;5.404;2024-01-25T05:48:30;102953.84;;;4.47;81.72
79453;BME280;68899;52.116;5.404;2024-01-25T05:50:57;102955.56;;;4.50;82.42
79453;BME280;68899;52.116;5.404;2024-01-25T05:53:24;102956.44;;;4.50;82.04
79453;BME280;68899;52.116;5.404;2024-01-25T05:55:50;102959.03;;;4.50;82.18
79453;BME280;68899;52.116;5.404;2024-01-25T05:58:17;102956.44;;;4.50;81.89
79453;BME280;68899;52.116;5.404;2024-01-25T06:00:43;102956.44;;;4.47;82.50
79453;BME280;68899;52.116;5.404;2024-01-25T06:03:10;102948.63;;;4.47;82.58
79453;BME280;68899;52.116;5.404;2024-01-25T06:05:37;102953.84;;;4.46;82.70
79453;BME280;68899;52.116;5.404;2024-01-25T06:08:04;102963.41;;;4.44;82.88
79453;BME280;68899;52.116;5.404;2024-01-25T06:10:31;102966.88;;;4.46;82.71
79453;BME280;68899;52.116;5.404;2024-01-25T06:12:58;102971.22;;;4.47;83.00
79453;BME280;68899;52.116;5.404;2024-01-25T06:15:24;102972.97;;;4.45;82.68
79453;BME280;68899;52.116;5.404;2024-01-25T06:17:51;102971.22;;;4.45;82.51
79453;BME280;68899;52.116;5.404;2024-01-25T06:20:17;102966.03;;;4.44;82.93
79453;BME280;68899;52.116;5.404;2024-01-25T06:22:45;102963.38;;;4.42;83.06
79453;BME280;68899;52.116;5.404;2024-01-25T06:25:11;102963.41;;;4.39;83.17
79453;BME280;68899;52.116;5.404;2024-01-25T06:27:38;102966.00;;;4.39;83.51
79453;BME280;68899;52.116;5.404;2024-01-25T06:30:05;102968.63;;;4.39;83.40
79453;BME280;68899;52.116;5.404;2024-01-25T06:32:32;102977.31;;;4.38;83.48
79453;BME280;68899;52.116;5.404;2024-01-25T06:34:59;102973.84;;;4.38;83.58
79453;BME280;68899;52.116;5.404;2024-01-25T06:37:25;102968.63;;;4.39;83.37
79453;BME280;68899;52.116;5.404;2024-01-25T06:39:53;102979.91;;;4.38;83.69
79453;BME280;68899;52.116;5.404;2024-01-25T06:42:19;102978.19;;;4.39;83.73
79453;BME280;68899;52.116;5.404;2024-01-25T06:44:46;102966.03;;;4.38;83.48
79453;BME280;68899;52.116;5.404;2024-01-25T06:47:12;102981.66;;;4.38;83.78
79453;BME280;68899;52.116;5.404;2024-01-25T06:49:40;102982.53;;;4.38;84.10
79453;BME280;68899;52.116;5.404;2024-01-25T06:52:06;102979.91;;;4.41;83.57
79453;BME280;68899;52.116;5.404;2024-01-25T06:54:33;102984.25;;;4.41;83.79
79453;BME280;68899;52.116;5.404;2024-01-25T06:57:00;102982.50;;;4.43;83.63
79453;BME280;68899;52.116;5.404;2024-01-25T06:59:26;102977.28;;;4.41;83.55
79453;BME280;68899;52.116;5.404;2024-01-25T07:01:53;102984.25;;;4.41;83.66
79453;BME280;68899;52.116;5.404;2024-01-25T07:04:21;102986.84;;;4.39;83.50
79453;BME280;68899;52.116;5.404;2024-01-25T07:06:48;102986.88;;;4.38;83.15
79453;BME280;68899;52.116;5.404;2024-01-25T07:09:14;102983.41;;;4.36;83.38
79453;BME280;68899;52.116;5.404;2024-01-25T07:11:41;102992.94;;;4.34;83.35
79453;BME280;68899;52.116;5.404;2024-01-25T07:14:08;102985.13;;;4.32;83.35
79453;BME280;68899;52.116;5.404;2024-01-25T07:16:34;102980.78;;;4.34;83.18
79453;BME280;68899;52.116;5.404;2024-01-25T07:19:01;102984.25;;;4.32;83.03
79453;BME280;68899;52.116;5.404;2024-01-25T07:21:27;102982.53;;;4.32;83.44
79453;BME280;68899;52.116;5.404;2024-01-25T07:23:54;102987.75;;;4.31;83.45
79453;BME280;68899;52.116;5.404;2024-01-25T07:26:20;102992.97;;;4.28;83.55
79453;BME280;68899;52.116;5.404;2024-01-25T07:28:48;102998.16;;;4.29;83.70
79453;BME280;68899;52.116;5.404;2024-01-25T07:31:16;102994.69;;;4.32;83.76
79453;BME280;68899;52.116;5.404;2024-01-25T07:33:42;102994.69;;;4.35;83.69
79453;BME280;68899;52.116;5.404;2024-01-25T07:36:09;102986.00;;;4.33;83.56
79453;BME280;68899;52.116;5.404;2024-01-25T07:38:35;102974.69;;;4.34;83.60
79453;BME280;68899;52.116;5.404;2024-01-25T07:41:02;102969.50;;;4.32;83.23
79453;BME280;68899;52.116;5.404;2024-01-25T07:43:28;102973.84;;;4.32;83.68
79453;BME280;68899;52.116;5.404;2024-01-25T07:45:55;102968.63;;;4.32;83.66
79453;BME280;68899;52.116;5.404;2024-01-25T07:48:21;102973.84;;;4.32;84.14
79453;BME280;68899;52.116;5.404;2024-01-25T07:50:48;102972.09;;;4.32;84.11
79453;BME280;68899;52.116;5.404;2024-01-25T07:53:14;102976.47;;;4.36;84.18
79453;BME280;68899;52.116;5.404;2024-01-25T07:55:42;102974.72;;;4.35;84.28
79453;BME280;68899;52.116;5.404;2024-01-25T07:58:09;102977.34;;;4.35;84.16
79453;BME280;68899;52.116;5.404;2024-01-25T08:00:36;102977.31;;;4.37;84.06
79453;BME280;68899;52.116;5.404;2024-01-25T08:03:03;102982.53;;;4.38;84.17
79453;BME280;68899;52.116;5.404;2024-01-25T08:05:30;102973.84;;;4.38;83.88
79453;BME280;68899;52.116;5.404;2024-01-25T08:08:10;102985.13;;;4.41;84.01
79453;BME280;68899;52.116;5.404;2024-01-25T08:10:37;102987.72;;;4.41;83.98
79453;BME280;68899;52.116;5.404;2024-01-25T08:13:04;102990.31;;;4.41;84.23
79453;BME280;68899;52.116;5.404;2024-01-25T08:15:33;102985.13;;;4.40;84.35
79453;BME280;68899;52.116;5.404;2024-01-25T08:18:00;102996.41;;;4.39;84.49
79453;BME280;68899;52.116;5.404;2024-01-25T08:20:27;102990.34;;;4.40;84.40
79453;BME280;68899;52.116;5.404;2024-01-25T08:22:53;102998.16;;;4.41;84.15
79453;BME280;68899;52.116;5.404;2024-01-25T08:25:20;103005.13;;;4.44;84.40
79453;BME280;68899;52.116;5.404;2024-01-25T08:27:47;103012.94;;;4.45;84.42
79453;BME280;68899;52.116;5.404;2024-01-25T08:30:14;103008.56;;;4.46;84.56
79453;BME280;68899;52.116;5.404;2024-01-25T08:32:40;103008.56;;;4.47;84.67
79453;BME280;68899;52.116;5.404;2024-01-25T08:35:07;103007.69;;;4.50;84.71
79453;BME280;68899;52.116;5.404;2024-01-25T08:37:34;102997.25;;;4.51;84.86
79453;BME280;68899;52.116;5.404;2024-01-25T08:40:04;102999.88;;;4.54;84.65
79453;BME280;68899;52.116;5.404;2024-01-25T08:42:32;102999.88;;;4.54;85.13
79453;BME280;68899;52.116;5.404;2024-01-25T08:44:59;103007.69;;;4.56;84.78
79453;BME280;68899;52.116;5.404;2024-01-25T08:47:26;102999.00;;;4.57;84.98
79453;BME280;68899;52.116;5.404;2024-01-25T08:49:52;103005.09;;;4.61;85.12
79453;BME280;68899;52.116;5.404;2024-01-25T08:52:19;103006.78;;;4.66;85.38
79453;BME280;68899;52.116;5.404;2024-01-25T08:54:46;103018.97;;;4.70;85.41
79453;BME280;68899;52.116;5.404;2024-01-25T08:57:12;103018.09;;;4.71;85.35
79453;BME280;68899;52.116;5.404;2024-01-25T08:59:41;103015.47;;;4.74;85.80
79453;BME280;68899;52.116;5.404;2024-01-25T09:02:07;103009.38;;;4.78;85.93
79453;BME280;68899;52.116;5.404;2024-01-25T09:04:34;103011.97;;;4.83;86.05
79453;BME280;68899;52.116;5.404;2024-01-25T09:07:00;103009.34;;;4.86;85.70
79453;BME280;68899;52.116;5.404;2024-01-25T09:09:27;103014.56;;;4.86;85.88
79453;BME280;68899;52.116;5.404;2024-01-25T09:11:53;103012.81;;;4.90;85.76
79453;BME280;68899;52.116;5.404;2024-01-25T09:14:20;103009.31;;;4.94;86.16
79453;BME280;68899;52.116;5.404;2024-01-25T09:16:48;103004.97;;;4.99;86.49
79453;BME280;68899;52.116;5.404;2024-01-25T09:19:14;103014.50;;;5.01;86.40
79453;BME280;68899;52.116;5.404;2024-01-25T09:21:42;103024.94;;;5.04;86.63
79453;BME280;68899;52.116;5.404;2024-01-25T09:24:09;103019.69;;;5.09;86.87
79453;BME280;68899;52.116;5.404;2024-01-25T09:26:36;103018.81;;;5.16;86.92
79453;BME280;68899;52.116;5.404;2024-01-25T09:29:02;103024.88;;;5.21;87.07
79453;BME280;68899;52.116;5.404;2024-01-25T09:31:29;103023.97;;;5.27;87.12
79453;BME280;68899;52.116;5.404;2024-01-25T09:33:56;103021.34;;;5.33;87.50
79453;BME280;68899;52.116;5.404;2024-01-25T09:36:23;103012.59;;;5.37;87.29
79453;BME280;68899;52.116;5.404;2024-01-25T09:38:49;102993.47;;;5.39;87.43
79453;BME280;68899;52.116;5.404;2024-01-25T09:41:16;102998.66;;;5.43;87.18
79453;BME280;68899;52.116;5.404;2024-01-25T09:43:43;103004.75;;;5.45;87.52
79453;BME280;68899;52.116;5.404;2024-01-25T09:46:13;103013.44;;;5.48;87.40
79453;BME280;68899;52.116;5.404;2024-01-25T09:48:40;103025.59;;;5.51;87.70
79453;BME280;68899;52.116;5.404;2024-01-25T09:51:09;103020.34;;;5.55;87.37
79453;BME280;68899;52.116;5.404;2024-01-25T09:53:39;103020.34;;;5.55;87.78
79453;BME280;68899;52.116;5.404;2024-01-25T09:56:10;103017.72;;;5.58;87.73
79453;BME280;68899;52.116;5.404;2024-01-25T09:58:42;103018.53;;;5.63;87.46
79453;BME280;68899;52.116;5.404;2024-01-25T10:01:13;103015.03;;;5.69;87.78
79453;BME280;68899;52.116;5.404;2024-01-25T10:03:46;102994.13;;;5.74;87.80
79453;BME280;68899;52.116;5.404;2024-01-25T10:06:14;102979.31;;;5.76;87.67
79453;BME280;68899;52.116;5.404;2024-01-25T10:08:41;102977.50;;;5.81;87.62
79453;BME280;68899;52.116;5.404;2024-01-25T10:11:08;102972.28;;;5.84;87.79
79453;BME280;68899;52.116;5.404;2024-01-25T10:13:41;102990.53;;;5.87;87.55
79453;BME280;68899;52.116;5.404;2024-01-25T10:16:12;102995.72;;;5.90;87.96
79453;BME280;68899;52.116;5.404;2024-01-25T10:18:40;103003.59;;;5.93;88.19
79453;BME280;68899;52.116;5.404;2024-01-25T10:21:12;103000.94;;;5.96;87.85
79453;BME280;68899;52.116;5.404;2024-01-25T10:23:40;102991.34;;;6.01;88.12
79453;BME280;68899;52.116;5.404;2024-01-25T10:26:10;102998.25;;;6.05;88.10
79453;BME280;68899;52.116;5.404;2024-01-25T10:28:37;103003.47;;;6.10;87.94
79453;BME280;68899;52.116;5.404;2024-01-25T10:31:04;103002.53;;;6.15;88.18
79453;BME280;68899;52.116;5.404;2024-01-25T10:33:33;102992.94;;;6.19;87.99
79453;BME280;68899;52.116;5.404;2024-01-25T10:36:02;102985.03;;;6.22;88.11
79453;BME280;68899;52.116;5.404;2024-01-25T10:38:35;102994.59;;;6.24;87.68
79453;BME280;68899;52.116;5.404;2024-01-25T10:41:04;102984.16;;;6.24;87.56
79453;BME280;68899;52.116;5.404;2024-01-25T10:43:32;102980.66;;;6.27;87.66
79453;BME280;68899;52.116;5.404;2024-01-25T10:45:59;102986.72;;;6.29;87.89
79453;BME280;68899;52.116;5.404;2024-01-25T10:48:30;102988.44;;;6.32;87.50
79453;BME280;68899;52.116;5.404;2024-01-25T10:50:58;102984.06;;;6.35;87.96
79453;BME280;68899;52.116;5.404;2024-01-25T10:53:33;102976.16;;;6.40;87.58
79453;BME280;68899;52.116;5.404;2024-01-25T10:56:01;102978.75;;;6.44;87.07
79453;BME280;68899;52.116;5.404;2024-01-25T10:58:32;102976.97;;;6.46;87.06
79453;BME280;68899;52.116;5.404;2024-01-25T11:01:11;102968.22;;;6.49;86.99
79453;BME280;68899;52.116;5.404;2024-01-25T11:03:42;102972.56;;;6.53;87.41
79453;BME280;68899;52.116;5.404;2024-01-25T11:06:10;102978.66;;;6.54;87.17
79453;BME280;68899;52.116;5.404;2024-01-25T11:08:38;102963.81;;;6.56;87.34
79453;BME280;68899;52.116;5.404;2024-01-25T11:11:06;102944.56;;;6.61;86.99
79453;BME280;68899;52.116;5.404;2024-01-25T11:13:34;102934.06;;;6.64;86.68
79453;BME280;68899;52.116;5.404;2024-01-25T11:16:18;102940.13;;;6.68;86.90
79453;BME280;68899;52.116;5.404;2024-01-25T11:18:48;102931.38;;;6.72;86.91
79453;BME280;68899;52.116;5.404;2024-01-25T11:21:48;102926.09;;;6.73;87.21
79453;BME280;68899;52.116;5.404;2024-01-25T11:26:44;102943.50;;;6.79;86.91
79453;BME280;68899;52.116;5.404;2024-01-25T11:29:18;102946.06;;;6.82;86.40
79453;BME280;68899;52.116;5.404;2024-01-25T11:31:46;102943.44;;;6.82;86.16
79453;BME280;68899;52.116;5.404;2024-01-25T11:34:13;102926.91;;;6.80;86.12
79453;BME280;68899;52.116;5.404;2024-01-25T11:36:42;102919.91;;;6.82;86.29
79453;BME280;68899;52.116;5.404;2024-01-25T11:39:10;102907.66;;;6.84;85.96
79453;BME280;68899;52.116;5.404;2024-01-25T11:41:38;102905.88;;;6.86;85.86
79453;BME280;68899;52.116;5.404;2024-01-25T11:44:05;102904.06;;;6.91;85.89
79453;BME280;68899;52.116;5.404;2024-01-25T11:46:31;102905.81;;;6.92;85.93
79453;BME280;68899;52.116;5.404;2024-01-25T11:49:03;102897.94;;;6.94;86.12
79453;BME280;68899;52.116;5.404;2024-01-25T11:51:30;102890.06;;;6.94;85.71
79453;BME280;68899;52.116;5.404;2024-01-25T11:53:56;102893.53;;;6.97;85.86
79453;BME280;68899;52.116;5.404;2024-01-25T11:56:28;102876.94;;;6.98;85.67
79453;BME280;68899;52.116;5.404;2024-01-25T11:58:55;102869.97;;;6.97;85.58
79453;BME280;68899;52.116;5.404;2024-01-25T12:01:24;102870.84;;;6.98;85.42
79453;BME280;68899;52.116;5.404;2024-01-25T12:03:52;102869.97;;;6.99;85.74
79453;BME280;68899;52.116;5.404;2024-01-25T12:06:20;102871.72;;;6.98;85.73
79453;BME280;68899;52.116;5.404;2024-01-25T12:08:46;102874.34;;;6.97;85.27
79453;BME280;68899;52.116;5.404;2024-01-25T12:11:14;102875.22;;;6.97;85.53
79453;BME280;68899;52.116;5.404;2024-01-25T12:13:42;102875.22;;;6.97;85.62
79453;BME280;68899;52.116;5.404;2024-01-25T12:16:09;102864.72;;;6.99;86.06
79453;BME280;68899;52.116;5.404;2024-01-25T12:18:37;102865.59;;;6.99;85.69
79453;BME280;68899;52.116;5.404;2024-01-25T12:21:05;102861.19;;;7.01;85.46
79453;BME280;68899;52.116;5.404;2024-01-25T12:23:35;102855.03;;;7.05;85.54
79453;BME280;68899;52.116;5.404;2024-01-25T12:26:09;102847.13;;;7.08;85.82
79453;BME280;68899;52.116;5.404;2024-01-25T12:28:38;102846.25;;;7.09;85.63
79453;BME280;68899;52.116;5.404;2024-01-25T12:31:05;102844.47;;;7.13;85.42
79453;BME280;68899;52.116;5.404;2024-01-25T12:33:33;102847.88;;;7.17;85.31
79453;BME280;68899;52.116;5.404;2024-01-25T12:36:02;102846.09;;;7.19;85.49
79453;BME280;68899;52.116;5.404;2024-01-25T12:38:29;102847.81;;;7.20;85.02
79453;BME280;68899;52.116;5.404;2024-01-25T12:40:58;102852.16;;;7.24;85.04
79453;BME280;68899;52.116;5.404;2024-01-25T12:43:25;102841.66;;;7.25;84.71
79453;BME280;68899;52.116;5.404;2024-01-25T12:45:52;102838.06;;;7.29;85.11
79453;BME280;68899;52.116;5.404;2024-01-25T12:48:23;102831.94;;;7.32;85.01
79453;BME280;68899;52.116;5.404;2024-01-25T12:50:50;102829.28;;;7.33;84.69
79453;BME280;68899;52.116;5.404;2024-01-25T12:53:17;102827.47;;;7.37;84.50
79453;BME280;68899;52.116;5.404;2024-01-25T12:55:44;102821.38;;;7.36;84.48
79453;BME280;68899;52.116;5.404;2024-01-25T12:58:10;102811.78;;;7.37;84.70
79453;BME280;68899;52.116;5.404;2024-01-25T13:00:38;102805.63;;;7.38;84.15
79453;BME280;68899;52.116;5.404;2024-01-25T13:03:05;102806.53;;;7.39;84.30